createdAt,value
2018-03-27T00:00:22.290Z,41.57
2018-03-27T00:02:49.520Z,33.07
2018-03-27T00:05:17.202Z,37.37
2018-03-27T00:07:44.050Z,42.80
2018-03-27T00:10:10.362Z,45.10
2018-03-27T00:12:36.670Z,40.50
2018-03-27T00:15:03.562Z,43.97
2018-03-27T00:17:30.618Z,42.10
2018-03-27T00:19:57.706Z,39.47
2018-03-27T00:22:24.822Z,45.37
2018-03-27T00:24:52.398Z,37.90
2018-03-27T00:27:31.019Z,42.33
2018-03-27T00:30:10.436Z,47.27
2018-03-27T00:32:49.710Z,44.97
2018-03-27T00:35:28.581Z,39.73
2018-03-27T00:38:07.750Z,45.73
2018-03-27T00:40:42.413Z,39.40
2018-03-27T00:43:12.079Z,45.77
2018-03-27T00:45:38.941Z,43.97
2018-03-27T00:48:05.853Z,47.13
2018-03-27T00:50:33.397Z,46.60
2018-03-27T00:53:00.258Z,45.73
2018-03-27T00:55:27.922Z,37.20
2018-03-27T00:57:54.959Z,39.20
2018-03-27T01:00:21.297Z,34.80
2018-03-27T01:02:48.573Z,32.47
2018-03-27T01:05:16.238Z,38.20
2018-03-27T01:07:43.628Z,46.20
2018-03-27T01:10:09.933Z,45.70
2018-03-27T01:12:38.110Z,47.10
2018-03-27T01:15:04.424Z,49.10
2018-03-27T01:17:30.722Z,57.27
2018-03-27T01:19:57.089Z,48.87
2018-03-27T01:22:24.182Z,51.67
2018-03-27T01:24:52.570Z,49.97
2018-03-27T01:27:20.339Z,50.03
2018-03-27T01:29:47.397Z,53.80
2018-03-27T01:32:14.453Z,53.20
2018-03-27T01:34:40.787Z,50.27
2018-03-27T01:37:07.466Z,47.93
2018-03-27T01:39:33.765Z,49.57
2018-03-27T01:42:00.826Z,41.23
2018-03-27T01:44:27.766Z,40.00
2018-03-27T01:46:54.860Z,40.40
2018-03-27T01:49:21.605Z,33.40
2018-03-27T01:51:47.912Z,40.53
2018-03-27T01:54:14.642Z,38.53
2018-03-27T01:56:41.694Z,31.17
2018-03-27T01:59:08.742Z,35.97
2018-03-27T02:01:35.800Z,41.63
2018-03-27T02:04:03.523Z,39.87
2018-03-27T02:06:30.266Z,34.00
2018-03-27T02:08:56.590Z,31.90
2018-03-27T02:11:29.460Z,44.27
2018-03-27T02:14:01.846Z,55.23
2018-03-27T02:16:34.298Z,54.27
2018-03-27T02:19:08.250Z,53.03
2018-03-27T02:21:34.451Z,44.57
2018-03-27T02:24:04.199Z,53.00
2018-03-27T02:26:31.074Z,53.23
2018-03-27T02:28:57.485Z,50.80
2018-03-27T02:31:24.068Z,52.70
2018-03-27T02:33:51.100Z,51.17
2018-03-27T02:36:18.583Z,52.00
2018-03-27T02:38:45.630Z,48.33
2018-03-27T02:41:12.671Z,51.30
2018-03-27T02:43:39.460Z,50.50
2018-03-27T02:46:06.350Z,50.23
2018-03-27T02:48:33.439Z,51.73
2018-03-27T02:51:00.587Z,49.50
2018-03-27T02:53:28.358Z,46.43
2018-03-27T02:55:55.830Z,50.30
2018-03-27T02:58:22.916Z,52.00
2018-03-27T03:00:49.229Z,55.67
2018-03-27T03:03:16.371Z,49.90
2018-03-27T03:05:44.191Z,52.13
2018-03-27T03:08:11.090Z,51.10
2018-03-27T03:10:38.169Z,52.63
2018-03-27T03:13:04.534Z,55.90
2018-03-27T03:15:30.845Z,53.23
2018-03-27T03:17:57.726Z,51.47
2018-03-27T03:20:24.024Z,54.67
2018-03-27T03:22:51.146Z,51.93
2018-03-27T03:25:17.454Z,61.87
2018-03-27T03:27:44.551Z,57.53
2018-03-27T03:30:11.598Z,50.80
2018-03-27T03:32:38.650Z,57.03
2018-03-27T03:35:05.778Z,62.83
2018-03-27T03:37:32.089Z,53.03
2018-03-27T03:40:00.210Z,49.83
2018-03-27T03:42:27.842Z,47.67
2018-03-27T03:44:54.621Z,49.60
2018-03-27T03:47:20.918Z,38.97
2018-03-27T03:49:47.810Z,39.00
2018-03-27T03:52:14.853Z,37.63
2018-03-27T03:54:41.712Z,39.10
2018-03-27T03:57:08.818Z,39.00
2018-03-27T03:59:35.122Z,42.93
2018-03-27T04:02:01.458Z,34.00
2018-03-27T04:04:28.305Z,43.63
2018-03-27T04:06:55.093Z,37.40
2018-03-27T04:09:21.396Z,42.10
2018-03-27T04:11:47.693Z,35.40
2018-03-27T04:14:14.763Z,29.67
2018-03-27T04:16:41.813Z,44.43
2018-03-27T04:19:08.910Z,37.50
2018-03-27T04:21:36.118Z,49.53
2018-03-27T04:24:03.181Z,43.37
2018-03-27T04:26:30.230Z,33.80
2018-03-27T04:28:57.730Z,41.90
2018-03-27T04:31:24.026Z,39.33
2018-03-27T04:33:51.088Z,31.43
2018-03-27T04:36:18.158Z,27.33
2018-03-27T04:38:44.458Z,43.43
2018-03-27T04:41:10.907Z,38.13
2018-03-27T04:43:38.493Z,44.93
2018-03-27T04:46:05.826Z,42.80
2018-03-27T04:48:32.986Z,46.00
2018-03-27T04:51:00.046Z,35.40
2018-03-27T04:53:27.494Z,47.80
2018-03-27T04:55:54.290Z,47.43
2018-03-27T04:58:20.597Z,52.63
2018-03-27T05:00:47.655Z,54.43
2018-03-27T05:03:14.682Z,46.47
2018-03-27T05:05:41.778Z,49.03
2018-03-27T05:14:55.274Z,49.70
2018-03-27T05:17:22.778Z,44.07
2018-03-27T05:19:49.081Z,52.33
2018-03-27T05:22:16.013Z,44.57
2018-03-27T05:24:43.113Z,51.47
2018-03-27T05:27:09.417Z,42.10
2018-03-27T05:29:35.738Z,41.40
2018-03-27T05:32:02.802Z,35.80
2018-03-27T05:34:30.034Z,35.73
2018-03-27T05:36:56.357Z,34.60
2018-03-27T05:39:23.402Z,34.53
2018-03-27T05:41:49.717Z,36.40
2018-03-27T05:44:16.617Z,37.90
2018-03-27T05:46:45.119Z,47.97
2018-03-27T05:49:12.065Z,43.30
2018-03-27T05:51:39.117Z,46.27
2018-03-27T05:54:07.098Z,46.83
2018-03-27T05:56:33.403Z,44.87
2018-03-27T05:58:59.746Z,48.90
2018-03-27T06:01:26.449Z,49.37
2018-03-27T06:03:53.242Z,41.63
2018-03-27T06:06:20.675Z,37.73
2018-03-27T06:08:48.137Z,39.63
2018-03-27T06:11:14.986Z,40.63
2018-03-27T06:13:41.713Z,42.10
2018-03-27T06:16:08.917Z,46.53
2018-03-27T06:18:35.985Z,49.43
2018-03-27T06:21:03.112Z,36.10
2018-03-27T06:23:29.429Z,39.10
2018-03-27T06:25:55.738Z,38.00
2018-03-27T06:28:22.553Z,36.40
2018-03-27T06:30:49.669Z,36.40
2018-03-27T06:33:15.973Z,33.93
2018-03-27T06:35:42.578Z,36.97
2018-03-27T06:38:09.618Z,38.17
2018-03-27T06:40:36.082Z,40.27
2018-03-27T06:43:03.641Z,37.83
2018-03-27T06:45:31.301Z,32.33
2018-03-27T06:47:58.724Z,30.90
2018-03-27T06:50:25.750Z,31.33
2018-03-27T06:52:52.928Z,33.47
2018-03-27T06:55:19.709Z,34.30
2018-03-27T06:57:46.717Z,35.30
2018-03-27T07:00:13.633Z,30.97
2018-03-27T07:02:40.681Z,29.03
2018-03-27T07:05:07.741Z,32.70
2018-03-27T07:07:35.506Z,31.77
2018-03-27T07:10:02.605Z,30.33
2018-03-27T07:12:29.499Z,26.90
2018-03-27T07:14:56.626Z,31.60
2018-03-27T07:17:22.944Z,26.53
2018-03-27T07:19:49.327Z,33.17
2018-03-27T07:22:16.381Z,32.67
2018-03-27T07:24:43.534Z,32.00
2018-03-27T07:27:10.589Z,39.33
2018-03-27T07:29:37.651Z,35.13
2018-03-27T07:32:03.962Z,32.90
2018-03-27T07:34:30.730Z,30.43
2018-03-27T07:36:58.913Z,40.67
2018-03-27T07:39:26.054Z,37.83
2018-03-27T07:41:53.122Z,27.87
2018-03-27T07:44:20.978Z,27.43
2018-03-27T07:46:48.581Z,23.73
2018-03-27T07:49:15.359Z,28.17
2018-03-27T07:51:42.551Z,27.30
2018-03-27T07:54:10.317Z,29.23
2018-03-27T07:56:38.386Z,36.10
2018-03-27T07:59:05.502Z,33.80
2018-03-27T08:01:31.818Z,26.63
2018-03-27T08:03:58.626Z,26.60
2018-03-27T08:06:26.068Z,26.43
2018-03-27T08:08:52.374Z,33.57
2018-03-27T08:11:19.109Z,41.30
2018-03-27T08:13:46.074Z,29.10
2018-03-27T08:16:12.384Z,29.30
2018-03-27T08:18:38.698Z,31.30
2018-03-27T08:21:06.171Z,27.00
2018-03-27T08:23:33.239Z,40.33
2018-03-27T08:25:59.671Z,49.60
2018-03-27T08:28:26.522Z,66.40
2018-03-27T08:30:52.823Z,46.07
2018-03-27T08:33:19.131Z,42.93
2018-03-27T08:35:45.450Z,53.97
2018-03-27T08:38:12.300Z,41.77
2018-03-27T08:40:39.166Z,63.20
2018-03-27T08:43:06.621Z,49.00
2018-03-27T08:45:33.621Z,58.27
2018-03-27T08:48:00.689Z,43.03
2018-03-27T08:50:27.531Z,56.97
2018-03-27T08:52:53.838Z,40.17
2018-03-27T08:55:20.737Z,49.17
2018-03-27T08:57:47.050Z,48.27
2018-03-27T09:00:14.106Z,42.40
2018-03-27T09:02:41.142Z,40.93
2018-03-27T09:05:08.293Z,44.73
2018-03-27T09:07:35.949Z,47.00
2018-03-27T09:10:02.258Z,43.97
2018-03-27T09:12:28.593Z,45.57
2018-03-27T09:14:55.114Z,35.53
2018-03-27T09:17:21.411Z,36.97
2018-03-27T09:19:48.601Z,34.13
2018-03-27T09:22:15.130Z,36.83
2018-03-27T09:24:41.430Z,35.10
2018-03-27T09:27:08.171Z,33.53
2018-03-27T09:29:35.102Z,40.70
2018-03-27T09:32:01.413Z,28.17
2018-03-27T09:34:27.726Z,35.07
2018-03-27T09:36:54.058Z,33.40
2018-03-27T09:39:22.118Z,29.90
2018-03-27T09:41:49.070Z,32.87
2018-03-27T09:44:16.050Z,26.87
2018-03-27T09:46:42.889Z,35.47
2018-03-27T09:49:10.668Z,32.80
2018-03-27T09:51:37.586Z,31.87
2018-03-27T09:54:04.468Z,31.87
2018-03-27T09:56:30.778Z,34.23
2018-03-27T09:58:57.834Z,34.20
2018-03-27T10:01:27.346Z,29.73
2018-03-27T10:03:55.432Z,34.00
2018-03-27T10:06:22.410Z,33.73
2018-03-27T10:08:48.769Z,35.13
2018-03-27T10:11:15.106Z,36.60
2018-03-27T10:13:41.898Z,34.03
2018-03-27T10:16:08.950Z,34.27
2018-03-27T10:18:36.012Z,36.17
2018-03-27T10:21:02.638Z,51.73
2018-03-27T10:23:30.053Z,117.00
2018-03-27T10:25:56.373Z,44.60
2018-03-27T10:28:23.379Z,49.50
2018-03-27T10:30:51.059Z,53.30
2018-03-27T10:33:18.122Z,50.40
2018-03-27T10:35:44.453Z,53.93
2018-03-27T10:38:11.802Z,43.27
2018-03-27T10:40:39.474Z,42.83
2018-03-27T10:43:06.542Z,40.63
2018-03-27T10:45:33.679Z,41.53
2018-03-27T10:48:00.727Z,49.33
2018-03-27T10:50:28.402Z,36.63
2018-03-27T10:52:55.515Z,38.27
2018-03-27T10:55:22.469Z,37.23
2018-03-27T10:57:49.205Z,45.43
2018-03-27T11:00:15.524Z,50.23
2018-03-27T11:02:42.531Z,54.63
2018-03-27T11:05:09.586Z,46.20
2018-03-27T11:07:39.282Z,57.23
2018-03-27T11:10:06.158Z,56.40
2018-03-27T11:12:33.610Z,48.93
2018-03-27T11:15:00.734Z,41.43
2018-03-27T11:17:27.072Z,35.60
2018-03-27T11:19:53.402Z,55.20
2018-03-27T11:22:19.711Z,47.87
2018-03-27T11:24:46.126Z,49.20
2018-03-27T11:27:12.763Z,47.43
2018-03-27T11:29:39.816Z,35.10
2018-03-27T11:32:07.483Z,33.90
2018-03-27T11:34:34.974Z,36.57
2018-03-27T11:37:01.333Z,43.90
2018-03-27T11:39:27.651Z,41.27
2018-03-27T11:41:54.250Z,49.93
2018-03-27T11:44:21.878Z,47.93
2018-03-27T11:46:48.773Z,50.33
2018-03-27T11:49:16.474Z,48.17
2018-03-27T11:51:43.282Z,50.07
2018-03-27T11:54:11.054Z,48.90
2018-03-27T11:56:38.614Z,45.30
2018-03-27T11:59:05.734Z,48.80
2018-03-27T12:01:32.706Z,47.57
2018-03-27T12:03:58.990Z,44.90
2018-03-27T12:06:25.995Z,45.80
2018-03-27T12:08:52.298Z,64.10
2018-03-27T12:11:18.613Z,46.33
2018-03-27T12:13:45.226Z,51.83
2018-03-27T12:16:12.296Z,53.43
2018-03-27T12:18:39.220Z,42.27
2018-03-27T12:21:06.270Z,45.33
2018-03-27T12:23:33.290Z,53.20
2018-03-27T12:25:59.595Z,58.53
2018-03-27T12:28:25.925Z,45.97
2018-03-27T12:30:52.262Z,46.13
2018-03-27T12:33:18.588Z,43.77
2018-03-27T12:35:44.946Z,43.10
2018-03-27T12:38:11.230Z,40.10
2018-03-27T12:40:37.518Z,49.50
2018-03-27T12:43:03.818Z,47.17
2018-03-27T12:45:31.178Z,46.73
2018-03-27T12:47:58.174Z,36.90
2018-03-27T12:50:24.853Z,35.90
2018-03-27T12:52:51.829Z,37.73
2018-03-27T12:55:19.402Z,37.03
2018-03-27T12:57:46.438Z,38.70
2018-03-27T13:00:13.454Z,33.23
2018-03-27T13:02:39.714Z,33.60
2018-03-27T13:05:06.106Z,27.67
2018-03-27T13:07:33.002Z,32.43
2018-03-27T13:09:59.258Z,32.30
2018-03-27T13:12:26.684Z,43.80
2018-03-27T13:14:53.578Z,33.60
2018-03-27T13:17:19.842Z,33.60
2018-03-27T13:19:46.107Z,33.30
2018-03-27T13:22:12.389Z,31.23
2018-03-27T13:24:38.641Z,37.30
2018-03-27T13:27:05.081Z,28.30
2018-03-27T13:29:31.360Z,27.70
2018-03-27T13:31:58.226Z,28.30
2018-03-27T13:34:25.240Z,22.40
2018-03-27T13:36:51.510Z,31.00
2018-03-27T13:39:18.518Z,29.00
2018-03-27T13:41:45.335Z,22.93
2018-03-27T13:44:12.156Z,26.90
2018-03-27T13:46:39.602Z,22.23
2018-03-27T13:49:06.474Z,25.63
2018-03-27T13:51:34.437Z,26.80
2018-03-27T13:54:02.222Z,19.57
2018-03-27T13:56:28.901Z,23.40
2018-03-27T13:58:55.454Z,22.70
2018-03-27T14:01:21.706Z,23.37
2018-03-27T14:03:48.674Z,24.20
2018-03-27T14:06:16.662Z,26.23
2018-03-27T14:08:43.653Z,21.87
2018-03-27T14:11:11.578Z,28.70
2018-03-27T14:13:38.925Z,24.40
2018-03-27T14:16:05.204Z,29.10
2018-03-27T14:18:31.461Z,25.43
2018-03-27T14:20:58.050Z,29.30
2018-03-27T14:23:25.051Z,27.87
2018-03-27T14:25:51.421Z,29.83
2018-03-27T14:28:18.293Z,34.30
2018-03-27T14:30:45.314Z,24.07
2018-03-27T14:33:11.677Z,28.87
2018-03-27T14:35:39.035Z,25.33
2018-03-27T14:38:06.420Z,27.80
2018-03-27T14:40:33.344Z,25.93
2018-03-27T14:43:00.345Z,29.83
2018-03-27T14:45:27.146Z,26.07
2018-03-27T14:47:54.604Z,27.80
2018-03-27T14:50:22.066Z,26.30
2018-03-27T14:52:49.100Z,31.83
2018-03-27T14:55:16.789Z,30.17
2018-03-27T14:57:43.769Z,29.20
2018-03-27T15:00:10.029Z,30.87
2018-03-27T15:02:36.314Z,30.77
2018-03-27T15:05:02.626Z,29.60
2018-03-27T15:07:29.397Z,29.70
2018-03-27T15:09:56.378Z,30.77
2018-03-27T15:12:22.629Z,29.33
2018-03-27T15:14:49.117Z,25.23
2018-03-27T15:17:17.507Z,30.07
2018-03-27T15:19:44.501Z,32.67
2018-03-27T15:22:10.749Z,27.60
2018-03-27T15:24:37.334Z,25.30
2018-03-27T15:27:04.331Z,26.50
2018-03-27T15:29:30.661Z,25.90
2018-03-27T15:31:57.669Z,28.43
2018-03-27T15:34:24.665Z,24.00
2018-03-27T15:36:51.857Z,27.23
2018-03-27T15:39:18.221Z,26.23
2018-03-27T15:41:45.210Z,33.67
2018-03-27T15:44:12.218Z,24.70
2018-03-27T15:46:39.686Z,28.30
2018-03-27T15:49:07.245Z,30.83
2018-03-27T15:51:34.805Z,26.23
2018-03-27T15:54:02.486Z,23.70
2018-03-27T15:56:28.745Z,25.03
2018-03-27T15:58:54.997Z,26.10
2018-03-27T16:01:21.307Z,23.43
2018-03-27T16:03:48.138Z,27.07
2018-03-27T16:06:15.789Z,26.83
2018-03-27T16:08:42.778Z,20.87
2018-03-27T16:11:09.052Z,28.73
2018-03-27T16:13:35.826Z,24.27
2018-03-27T16:16:02.861Z,22.10
2018-03-27T16:18:29.119Z,24.63
2018-03-27T16:20:56.477Z,26.53
2018-03-27T16:23:23.549Z,27.43
2018-03-27T16:25:50.165Z,22.83
2018-03-27T16:28:17.161Z,26.63
2018-03-27T16:30:43.414Z,29.27
2018-03-27T16:33:10.098Z,26.73
2018-03-27T16:35:37.426Z,28.47
2018-03-27T16:38:03.731Z,18.53
2018-03-27T16:40:29.985Z,22.33
2018-03-27T16:42:56.259Z,19.07
2018-03-27T16:45:23.956Z,27.00
2018-03-27T16:47:50.577Z,25.20
2018-03-27T16:50:18.059Z,20.73
2018-03-27T16:52:44.319Z,26.17
2018-03-27T16:55:11.209Z,21.70
2018-03-27T16:57:37.463Z,21.90
2018-03-27T17:00:04.512Z,26.33
2018-03-27T17:02:31.558Z,18.57
2018-03-27T17:04:58.549Z,22.60
2018-03-27T17:07:26.177Z,20.80
2018-03-27T17:09:53.170Z,30.90
2018-03-27T17:12:19.437Z,19.97
2018-03-27T17:14:45.710Z,22.70
2018-03-27T17:17:12.434Z,21.17
2018-03-27T17:19:39.171Z,23.67
2018-03-27T17:22:05.425Z,17.37
2018-03-27T17:24:32.417Z,16.57
2018-03-27T17:26:59.018Z,19.87
2018-03-27T17:29:26.682Z,19.30
2018-03-27T17:31:54.354Z,14.60
2018-03-27T17:34:21.349Z,22.63
2018-03-27T17:36:47.597Z,21.00
2018-03-27T17:39:13.861Z,16.20
2018-03-27T17:41:40.106Z,18.73
2018-03-27T17:44:07.666Z,16.30
2018-03-27T17:46:35.125Z,22.53
2018-03-27T17:49:01.892Z,21.77
2018-03-27T17:51:28.222Z,24.30
2018-03-27T17:53:55.777Z,21.33
2018-03-27T17:56:22.766Z,25.93
2018-03-27T17:58:49.055Z,19.60
2018-03-27T18:01:15.349Z,15.57
2018-03-27T18:03:41.597Z,25.53
2018-03-27T18:06:08.698Z,19.53
2018-03-27T18:08:35.700Z,24.73
2018-03-27T18:11:01.953Z,19.50
2018-03-27T18:13:28.618Z,18.13
2018-03-27T18:15:56.194Z,30.17
2018-03-27T18:18:23.959Z,25.20
2018-03-27T18:20:51.421Z,26.50
2018-03-27T18:23:18.426Z,34.00
2018-03-27T18:25:44.679Z,29.60
2018-03-27T18:28:12.786Z,20.27
2018-03-27T18:30:40.221Z,22.10
2018-03-27T18:33:06.478Z,20.10
2018-03-27T18:35:33.480Z,27.33
2018-03-27T18:37:59.740Z,29.87
2018-03-27T18:40:27.822Z,29.10
2018-03-27T18:42:54.604Z,32.97
2018-03-27T18:45:21.429Z,25.67
2018-03-27T18:47:48.906Z,27.13
2018-03-27T18:50:16.364Z,28.40
2018-03-27T18:52:43.367Z,28.30
2018-03-27T18:55:10.986Z,24.63
2018-03-27T18:57:37.991Z,19.57
2018-03-27T19:00:04.301Z,18.90
2018-03-27T19:02:30.798Z,25.13
2018-03-27T19:04:57.794Z,29.30
2018-03-27T19:07:24.594Z,25.30
2018-03-27T19:09:52.415Z,26.60
2018-03-27T19:12:19.133Z,28.77
2018-03-27T19:14:45.366Z,25.67
2018-03-27T19:17:11.919Z,26.60
2018-03-27T19:19:38.969Z,23.03
2018-03-27T19:22:05.622Z,27.63
2018-03-27T19:24:32.050Z,29.60
2018-03-27T19:26:59.007Z,25.57
2018-03-27T19:29:25.822Z,24.37
2018-03-27T19:31:52.823Z,29.03
2018-03-27T19:34:19.101Z,25.00
2018-03-27T19:36:46.030Z,27.03
2018-03-27T19:39:13.778Z,25.90
2018-03-27T19:41:40.747Z,19.97
2018-03-27T19:44:07.532Z,21.63
2018-03-27T19:46:34.981Z,17.93
2018-03-27T19:49:01.589Z,16.27
2018-03-27T19:51:27.846Z,24.80
2018-03-27T19:53:54.108Z,29.57
2018-03-27T19:56:21.114Z,26.00
2018-03-27T19:58:47.802Z,19.37
2018-03-27T20:01:14.869Z,21.57
2018-03-27T20:03:41.134Z,16.87
2018-03-27T20:06:07.842Z,16.30
2018-03-27T20:08:34.116Z,15.37
2018-03-27T20:11:00.782Z,15.73
2018-03-27T20:13:27.047Z,15.57
2018-03-27T20:15:54.717Z,16.90
2018-03-27T20:18:21.723Z,19.30
2018-03-27T20:20:48.762Z,18.73
2018-03-27T20:23:15.067Z,17.40
2018-03-27T20:25:41.762Z,19.83
2018-03-27T20:28:08.667Z,14.00
2018-03-27T20:30:35.245Z,14.40
2018-03-27T20:33:01.506Z,14.87
2018-03-27T20:35:27.890Z,14.87
2018-03-27T20:37:54.910Z,19.27
2018-03-27T20:40:22.781Z,21.50
2018-03-27T20:42:50.463Z,21.90
2018-03-27T20:45:17.901Z,19.70
2018-03-27T20:47:44.654Z,19.53
2018-03-27T20:50:12.188Z,21.97
2018-03-27T20:52:39.127Z,21.63
2018-03-27T20:55:05.922Z,17.10
2018-03-27T20:57:32.909Z,16.70
2018-03-27T20:59:59.162Z,15.90
2018-03-27T21:02:25.741Z,15.97
2018-03-27T21:04:52.717Z,17.27
2018-03-27T21:07:19.645Z,13.67
2018-03-27T21:09:46.629Z,15.07
2018-03-27T21:12:12.881Z,14.73
2018-03-27T21:14:39.186Z,16.10
2018-03-27T21:17:05.442Z,16.70
2018-03-27T21:19:32.165Z,21.07
2018-03-27T21:21:58.429Z,27.87
2018-03-27T21:24:25.141Z,19.57
2018-03-27T21:26:51.401Z,16.83
2018-03-27T21:29:18.075Z,16.27
2018-03-27T21:31:44.348Z,14.17
2018-03-27T21:34:11.341Z,13.23
2018-03-27T21:36:38.194Z,12.57
2018-03-27T21:39:05.186Z,18.90
2018-03-27T21:41:32.809Z,23.47
2018-03-27T21:43:59.597Z,21.93
2018-03-27T21:46:26.453Z,20.63
2018-03-27T21:48:54.023Z,19.80
2018-03-27T21:51:21.070Z,16.60
2018-03-27T21:53:48.088Z,14.47
2018-03-27T21:56:15.082Z,14.37
2018-03-27T21:58:42.077Z,18.00
2018-03-27T22:01:08.338Z,16.70
2018-03-27T22:03:39.363Z,19.60
2018-03-27T22:06:06.493Z,25.17
2018-03-27T22:08:32.730Z,27.77
2018-03-27T22:10:59.486Z,27.30
2018-03-27T22:13:25.751Z,22.30
2018-03-27T22:15:52.634Z,24.60
2018-03-27T22:18:19.634Z,26.97
2018-03-27T22:20:46.532Z,19.60
2018-03-27T22:23:13.517Z,20.03
2018-03-27T22:25:39.790Z,15.90
2018-03-27T22:28:06.571Z,20.90
2018-03-27T22:30:33.565Z,15.43
2018-03-27T22:33:00.234Z,15.20
2018-03-27T22:35:26.893Z,20.27
2018-03-27T22:37:53.877Z,17.30
2018-03-27T22:40:20.582Z,15.53
2018-03-27T22:42:46.869Z,21.30
2018-03-27T22:45:13.770Z,18.73
2018-03-27T22:47:41.212Z,16.53
2018-03-27T22:50:08.698Z,17.93
2018-03-27T22:52:35.676Z,14.97
2018-03-27T22:55:02.974Z,12.17
2018-03-27T22:57:29.236Z,16.80
2018-03-27T22:59:55.466Z,23.93
2018-03-27T23:02:22.025Z,23.40
2018-03-27T23:04:49.027Z,20.47
2018-03-27T23:07:15.858Z,14.47
2018-03-27T23:09:42.135Z,13.60
2018-03-27T23:12:08.386Z,9.83
2018-03-27T23:14:35.653Z,11.50
2018-03-27T23:17:03.075Z,18.83
2018-03-27T23:19:30.574Z,18.50
2018-03-27T23:21:58.037Z,19.37
2018-03-27T23:24:24.314Z,22.20
2018-03-27T23:26:50.574Z,15.37
2018-03-27T23:29:18.593Z,15.40
2018-03-27T23:31:45.581Z,19.43
2018-03-27T23:34:12.474Z,18.07
2018-03-27T23:36:39.452Z,19.80
2018-03-27T23:39:06.490Z,20.33
2018-03-27T23:41:33.554Z,23.43
2018-03-27T23:44:00.382Z,25.20
2018-03-27T23:46:27.763Z,26.07
2018-03-27T23:48:54.585Z,20.70
2018-03-27T23:51:21.602Z,21.40
2018-03-27T23:53:47.861Z,27.10
2018-03-27T23:56:14.722Z,21.93
2018-03-27T23:58:41.709Z,22.40
